sensor_id;sensor_type;location;lat;lon;timestamp;P1;durP1;ratioP1;P2;durP2;ratioP2
5752;SDS011;2901;42.140;24.760;2023-03-14T00:00:37;5.27;;;3.10;;
5752;SDS011;2901;42.140;24.760;2023-03-14T00:03:03;6.37;;;3.13;;
5752;SDS011;2901;42.140;24.760;2023-03-14T00:05:28;4.97;;;3.20;;
5752;SDS011;2901;42.140;24.760;2023-03-14T00:07:53;3.57;;;2.70;;
5752;SDS011;2901;42.140;24.760;2023-03-14T00:10:19;7.03;;;2.50;;
5752;SDS011;2901;42.140;24.760;2023-03-14T00:12:45;5.97;;;2.90;;
5752;SDS011;2901;42.140;24.760;2023-03-14T00:15:11;5.20;;;2.87;;
5752;SDS011;2901;42.140;24.760;2023-03-14T00:17:37;2.47;;;2.27;;
5752;SDS011;2901;42.140;24.760;2023-03-14T00:20:03;2.90;;;2.53;;
5752;SDS011;2901;42.140;24.760;2023-03-14T00:22:35;3.67;;;2.87;;
5752;SDS011;2901;42.140;24.760;2023-03-14T00:25:02;3.23;;;2.63;;
5752;SDS011;2901;42.140;24.760;2023-03-14T00:27:28;3.00;;;2.80;;
5752;SDS011;2901;42.140;24.760;2023-03-14T00:29:54;8.00;;;2.87;;
5752;SDS011;2901;42.140;24.760;2023-03-14T00:32:19;3.30;;;2.87;;
5752;SDS011;2901;42.140;24.760;2023-03-14T00:34:44;5.10;;;2.57;;
5752;SDS011;2901;42.140;24.760;2023-03-14T00:37:10;4.97;;;2.47;;
5752;SDS011;2901;42.140;24.760;2023-03-14T00:39:35;5.10;;;4.00;;
5752;SDS011;2901;42.140;24.760;2023-03-14T00:42:01;5.60;;;3.40;;
5752;SDS011;2901;42.140;24.760;2023-03-14T00:44:26;4.10;;;3.80;;
5752;SDS011;2901;42.140;24.760;2023-03-14T00:46:51;5.93;;;3.90;;
5752;SDS011;2901;42.140;24.760;2023-03-14T00:49:17;4.50;;;3.70;;
5752;SDS011;2901;42.140;24.760;2023-03-14T00:51:42;6.03;;;3.93;;
5752;SDS011;2901;42.140;24.760;2023-03-14T00:54:08;6.63;;;3.97;;
5752;SDS011;2901;42.140;24.760;2023-03-14T00:56:33;6.07;;;4.27;;
5752;SDS011;2901;42.140;24.760;2023-03-14T00:58:58;6.10;;;4.17;;
5752;SDS011;2901;42.140;24.760;2023-03-14T01:01:24;7.00;;;4.13;;
5752;SDS011;2901;42.140;24.760;2023-03-14T01:03:53;5.50;;;4.53;;
5752;SDS011;2901;42.140;24.760;2023-03-14T01:06:21;12.43;;;5.73;;
5752;SDS011;2901;42.140;24.760;2023-03-14T01:08:48;9.90;;;5.73;;
5752;SDS011;2901;42.140;24.760;2023-03-14T01:11:20;10.53;;;6.07;;
5752;SDS011;2901;42.140;24.760;2023-03-14T01:13:48;10.50;;;3.77;;
5752;SDS011;2901;42.140;24.760;2023-03-14T01:16:14;6.20;;;5.10;;
5752;SDS011;2901;42.140;24.760;2023-03-14T01:18:41;7.70;;;4.83;;
5752;SDS011;2901;42.140;24.760;2023-03-14T01:21:18;4.60;;;4.20;;
5752;SDS011;2901;42.140;24.760;2023-03-14T01:23:46;7.30;;;5.07;;
5752;SDS011;2901;42.140;24.760;2023-03-14T01:26:13;5.27;;;4.17;;
5752;SDS011;2901;42.140;24.760;2023-03-14T01:28:40;7.80;;;4.73;;
5752;SDS011;2901;42.140;24.760;2023-03-14T01:31:06;6.13;;;4.20;;
5752;SDS011;2901;42.140;24.760;2023-03-14T01:33:34;5.47;;;4.10;;
5752;SDS011;2901;42.140;24.760;2023-03-14T01:36:00;5.83;;;3.93;;
5752;SDS011;2901;42.140;24.760;2023-03-14T01:38:28;4.07;;;3.77;;
5752;SDS011;2901;42.140;24.760;2023-03-14T01:40:54;4.00;;;3.80;;
5752;SDS011;2901;42.140;24.760;2023-03-14T01:43:20;4.17;;;3.87;;
5752;SDS011;2901;42.140;24.760;2023-03-14T01:48:37;3.93;;;3.63;;
5752;SDS011;2901;42.140;24.760;2023-03-14T01:51:09;4.77;;;4.07;;
5752;SDS011;2901;42.140;24.760;2023-03-14T01:53:39;5.53;;;4.30;;
5752;SDS011;2901;42.140;24.760;2023-03-14T01:56:08;8.40;;;5.33;;
5752;SDS011;2901;42.140;24.760;2023-03-14T01:58:36;5.97;;;5.37;;
5752;SDS011;2901;42.140;24.760;2023-03-14T02:01:05;4.93;;;4.53;;
5752;SDS011;2901;42.140;24.760;2023-03-14T02:03:33;5.57;;;5.07;;
5752;SDS011;2901;42.140;24.760;2023-03-14T02:06:04;5.80;;;5.30;;
5752;SDS011;2901;42.140;24.760;2023-03-14T02:08:32;6.30;;;5.70;;
5752;SDS011;2901;42.140;24.760;2023-03-14T02:11:00;6.67;;;5.97;;
5752;SDS011;2901;42.140;24.760;2023-03-14T02:13:25;7.03;;;6.30;;
5752;SDS011;2901;42.140;24.760;2023-03-14T02:15:51;12.87;;;7.50;;
5752;SDS011;2901;42.140;24.760;2023-03-14T02:18:17;9.77;;;6.17;;
5752;SDS011;2901;42.140;24.760;2023-03-14T02:23:39;6.77;;;5.33;;
5752;SDS011;2901;42.140;24.760;2023-03-14T02:26:15;6.97;;;6.07;;
5752;SDS011;2901;42.140;24.760;2023-03-14T02:28:47;5.60;;;5.20;;
5752;SDS011;2901;42.140;24.760;2023-03-14T02:31:13;6.13;;;5.63;;
5752;SDS011;2901;42.140;24.760;2023-03-14T02:33:40;6.60;;;6.00;;
5752;SDS011;2901;42.140;24.760;2023-03-14T02:36:07;7.00;;;5.47;;
5752;SDS011;2901;42.140;24.760;2023-03-14T02:38:38;5.30;;;4.87;;
5752;SDS011;2901;42.140;24.760;2023-03-14T02:41:09;8.60;;;6.13;;
5752;SDS011;2901;42.140;24.760;2023-03-14T02:43:34;6.57;;;5.90;;
5752;SDS011;2901;42.140;24.760;2023-03-14T02:46:00;6.57;;;5.07;;
5752;SDS011;2901;42.140;24.760;2023-03-14T02:48:31;10.23;;;5.73;;
5752;SDS011;2901;42.140;24.760;2023-03-14T02:51:04;6.50;;;4.60;;
5752;SDS011;2901;42.140;24.760;2023-03-14T02:53:32;5.40;;;5.00;;
5752;SDS011;2901;42.140;24.760;2023-03-14T02:55:59;12.17;;;6.37;;
5752;SDS011;2901;42.140;24.760;2023-03-14T02:58:25;8.13;;;6.30;;
5752;SDS011;2901;42.140;24.760;2023-03-14T03:00:51;5.97;;;5.43;;
5752;SDS011;2901;42.140;24.760;2023-03-14T03:03:17;6.87;;;6.20;;
5752;SDS011;2901;42.140;24.760;2023-03-14T03:05:43;8.70;;;6.00;;
5752;SDS011;2901;42.140;24.760;2023-03-14T03:08:09;5.63;;;5.20;;
5752;SDS011;2901;42.140;24.760;2023-03-14T03:10:35;9.50;;;5.47;;
5752;SDS011;2901;42.140;24.760;2023-03-14T03:13:00;6.77;;;5.30;;
5752;SDS011;2901;42.140;24.760;2023-03-14T03:15:26;6.07;;;5.47;;
5752;SDS011;2901;42.140;24.760;2023-03-14T03:17:52;13.53;;;6.00;;
5752;SDS011;2901;42.140;24.760;2023-03-14T03:20:17;7.07;;;5.60;;
5752;SDS011;2901;42.140;24.760;2023-03-14T03:22:43;6.23;;;5.70;;
5752;SDS011;2901;42.140;24.760;2023-03-14T03:25:08;8.87;;;6.40;;
5752;SDS011;2901;42.140;24.760;2023-03-14T03:27:35;7.83;;;5.50;;
5752;SDS011;2901;42.140;24.760;2023-03-14T03:30:02;11.57;;;5.90;;
5752;SDS011;2901;42.140;24.760;2023-03-14T03:32:28;7.93;;;6.03;;
5752;SDS011;2901;42.140;24.760;2023-03-14T03:34:54;6.63;;;6.03;;
5752;SDS011;2901;42.140;24.760;2023-03-14T03:37:19;9.70;;;6.73;;
5752;SDS011;2901;42.140;24.760;2023-03-14T03:39:45;7.87;;;6.47;;
5752;SDS011;2901;42.140;24.760;2023-03-14T03:42:10;7.03;;;6.27;;
5752;SDS011;2901;42.140;24.760;2023-03-14T03:44:36;12.40;;;5.90;;
5752;SDS011;2901;42.140;24.760;2023-03-14T03:47:01;12.97;;;6.73;;
5752;SDS011;2901;42.140;24.760;2023-03-14T03:49:30;10.23;;;6.73;;
5752;SDS011;2901;42.140;24.760;2023-03-14T03:51:56;12.43;;;6.47;;
5752;SDS011;2901;42.140;24.760;2023-03-14T03:54:22;6.93;;;6.33;;
5752;SDS011;2901;42.140;24.760;2023-03-14T03:56:48;9.67;;;7.63;;
5752;SDS011;2901;42.140;24.760;2023-03-14T03:59:13;15.40;;;7.97;;
5752;SDS011;2901;42.140;24.760;2023-03-14T04:01:39;7.50;;;6.80;;
5752;SDS011;2901;42.140;24.760;2023-03-14T04:04:04;9.10;;;6.80;;
5752;SDS011;2901;42.140;24.760;2023-03-14T04:06:30;11.47;;;7.10;;
5752;SDS011;2901;42.140;24.760;2023-03-14T04:08:55;10.43;;;6.93;;
5752;SDS011;2901;42.140;24.760;2023-03-14T04:11:21;7.50;;;6.93;;
5752;SDS011;2901;42.140;24.760;2023-03-14T04:13:46;14.90;;;8.50;;
5752;SDS011;2901;42.140;24.760;2023-03-14T04:16:16;9.93;;;7.40;;
5752;SDS011;2901;42.140;24.760;2023-03-14T04:18:43;14.37;;;7.90;;
5752;SDS011;2901;42.140;24.760;2023-03-14T04:21:08;13.27;;;7.77;;
5752;SDS011;2901;42.140;24.760;2023-03-14T04:23:34;16.60;;;8.13;;
5752;SDS011;2901;42.140;24.760;2023-03-14T04:26:00;12.83;;;7.93;;
5752;SDS011;2901;42.140;24.760;2023-03-14T04:28:25;13.30;;;8.27;;
5752;SDS011;2901;42.140;24.760;2023-03-14T04:30:50;8.13;;;6.83;;
5752;SDS011;2901;42.140;24.760;2023-03-14T04:33:16;11.43;;;7.73;;
5752;SDS011;2901;42.140;24.760;2023-03-14T04:35:44;11.27;;;6.60;;
5752;SDS011;2901;42.140;24.760;2023-03-14T04:38:10;16.70;;;7.73;;
5752;SDS011;2901;42.140;24.760;2023-03-14T04:40:39;15.00;;;7.37;;
5752;SDS011;2901;42.140;24.760;2023-03-14T04:43:06;7.57;;;6.77;;
5752;SDS011;2901;42.140;24.760;2023-03-14T04:45:32;12.53;;;9.00;;
5752;SDS011;2901;42.140;24.760;2023-03-14T04:47:57;14.60;;;7.47;;
5752;SDS011;2901;42.140;24.760;2023-03-14T04:50:23;12.93;;;8.97;;
5752;SDS011;2901;42.140;24.760;2023-03-14T04:52:48;12.77;;;8.47;;
5752;SDS011;2901;42.140;24.760;2023-03-14T04:55:14;13.77;;;8.87;;
5752;SDS011;2901;42.140;24.760;2023-03-14T04:57:39;15.80;;;8.93;;
5752;SDS011;2901;42.140;24.760;2023-03-14T05:00:05;16.30;;;9.40;;
5752;SDS011;2901;42.140;24.760;2023-03-14T05:02:31;14.87;;;8.40;;
5752;SDS011;2901;42.140;24.760;2023-03-14T05:04:57;13.53;;;7.87;;
5752;SDS011;2901;42.140;24.760;2023-03-14T05:07:22;13.87;;;8.30;;
5752;SDS011;2901;42.140;24.760;2023-03-14T05:09:47;18.63;;;8.13;;
5752;SDS011;2901;42.140;24.760;2023-03-14T05:12:13;18.10;;;8.53;;
5752;SDS011;2901;42.140;24.760;2023-03-14T05:14:38;17.57;;;9.30;;
5752;SDS011;2901;42.140;24.760;2023-03-14T05:17:04;12.27;;;8.43;;
5752;SDS011;2901;42.140;24.760;2023-03-14T05:19:30;16.83;;;7.37;;
5752;SDS011;2901;42.140;24.760;2023-03-14T05:21:56;18.23;;;7.83;;
5752;SDS011;2901;42.140;24.760;2023-03-14T05:24:21;20.27;;;9.03;;
5752;SDS011;2901;42.140;24.760;2023-03-14T05:26:46;13.53;;;8.63;;
5752;SDS011;2901;42.140;24.760;2023-03-14T05:29:12;14.53;;;10.03;;
5752;SDS011;2901;42.140;24.760;2023-03-14T05:31:37;24.30;;;15.10;;
5752;SDS011;2901;42.140;24.760;2023-03-14T05:34:02;30.17;;;18.63;;
5752;SDS011;2901;42.140;24.760;2023-03-14T05:36:28;36.67;;;20.97;;
5752;SDS011;2901;42.140;24.760;2023-03-14T05:38:53;38.43;;;24.17;;
5752;SDS011;2901;42.140;24.760;2023-03-14T05:41:19;44.60;;;23.87;;
5752;SDS011;2901;42.140;24.760;2023-03-14T05:43:44;46.27;;;26.43;;
5752;SDS011;2901;42.140;24.760;2023-03-14T05:46:09;40.50;;;22.03;;
5752;SDS011;2901;42.140;24.760;2023-03-14T05:48:35;40.10;;;19.23;;
5752;SDS011;2901;42.140;24.760;2023-03-14T05:51:00;32.23;;;16.03;;
5752;SDS011;2901;42.140;24.760;2023-03-14T05:53:25;28.20;;;14.80;;
5752;SDS011;2901;42.140;24.760;2023-03-14T05:55:54;25.53;;;16.13;;
5752;SDS011;2901;42.140;24.760;2023-03-14T05:58:20;20.07;;;13.77;;
5752;SDS011;2901;42.140;24.760;2023-03-14T06:00:46;35.00;;;15.30;;
5752;SDS011;2901;42.140;24.760;2023-03-14T06:03:11;28.60;;;13.13;;
5752;SDS011;2901;42.140;24.760;2023-03-14T06:05:37;22.13;;;12.83;;
5752;SDS011;2901;42.140;24.760;2023-03-14T06:08:02;21.00;;;13.63;;
5752;SDS011;2901;42.140;24.760;2023-03-14T06:10:28;46.03;;;14.53;;
5752;SDS011;2901;42.140;24.760;2023-03-14T06:12:53;20.37;;;11.87;;
5752;SDS011;2901;42.140;24.760;2023-03-14T06:15:19;22.60;;;11.43;;
5752;SDS011;2901;42.140;24.760;2023-03-14T06:17:44;21.43;;;11.77;;
5752;SDS011;2901;42.140;24.760;2023-03-14T06:20:10;28.67;;;13.50;;
5752;SDS011;2901;42.140;24.760;2023-03-14T06:22:36;33.83;;;13.53;;
5752;SDS011;2901;42.140;24.760;2023-03-14T06:25:01;19.23;;;11.13;;
5752;SDS011;2901;42.140;24.760;2023-03-14T06:27:28;18.43;;;10.60;;
5752;SDS011;2901;42.140;24.760;2023-03-14T06:29:54;28.77;;;12.10;;
5752;SDS011;2901;42.140;24.760;2023-03-14T06:32:19;22.33;;;11.17;;
5752;SDS011;2901;42.140;24.760;2023-03-14T06:34:45;22.63;;;11.47;;
5752;SDS011;2901;42.140;24.760;2023-03-14T06:37:11;19.13;;;10.93;;
5752;SDS011;2901;42.140;24.760;2023-03-14T06:39:36;25.70;;;11.07;;
5752;SDS011;2901;42.140;24.760;2023-03-14T06:42:03;13.23;;;10.03;;
5752;SDS011;2901;42.140;24.760;2023-03-14T06:44:28;21.07;;;9.73;;
5752;SDS011;2901;42.140;24.760;2023-03-14T06:46:54;16.00;;;9.97;;
5752;SDS011;2901;42.140;24.760;2023-03-14T06:49:19;21.67;;;10.53;;
5752;SDS011;2901;42.140;24.760;2023-03-14T06:51:44;15.93;;;8.73;;
5752;SDS011;2901;42.140;24.760;2023-03-14T06:54:10;26.17;;;9.30;;
5752;SDS011;2901;42.140;24.760;2023-03-14T06:56:35;12.03;;;9.00;;
5752;SDS011;2901;42.140;24.760;2023-03-14T06:59:01;30.70;;;9.93;;
5752;SDS011;2901;42.140;24.760;2023-03-14T07:01:27;18.73;;;8.53;;
5752;SDS011;2901;42.140;24.760;2023-03-14T07:03:53;12.23;;;8.80;;
5752;SDS011;2901;42.140;24.760;2023-03-14T07:06:18;12.47;;;7.17;;
5752;SDS011;2901;42.140;24.760;2023-03-14T07:08:44;12.53;;;8.10;;
5752;SDS011;2901;42.140;24.760;2023-03-14T07:11:10;15.77;;;8.47;;
5752;SDS011;2901;42.140;24.760;2023-03-14T07:13:36;13.87;;;8.70;;
5752;SDS011;2901;42.140;24.760;2023-03-14T07:16:03;12.33;;;9.20;;
5752;SDS011;2901;42.140;24.760;2023-03-14T07:18:29;12.20;;;9.73;;
5752;SDS011;2901;42.140;24.760;2023-03-14T07:20:54;23.80;;;10.57;;
5752;SDS011;2901;42.140;24.760;2023-03-14T07:23:19;15.30;;;9.90;;
5752;SDS011;2901;42.140;24.760;2023-03-14T07:25:45;20.60;;;10.97;;
5752;SDS011;2901;42.140;24.760;2023-03-14T07:28:10;17.33;;;10.33;;
5752;SDS011;2901;42.140;24.760;2023-03-14T07:30:36;27.43;;;12.20;;
5752;SDS011;2901;42.140;24.760;2023-03-14T07:33:01;15.13;;;10.45;;
5752;SDS011;2901;42.140;24.760;2023-03-14T07:35:26;16.87;;;10.10;;
5752;SDS011;2901;42.140;24.760;2023-03-14T07:37:52;25.10;;;10.37;;
5752;SDS011;2901;42.140;24.760;2023-03-14T07:40:17;18.47;;;10.07;;
5752;SDS011;2901;42.140;24.760;2023-03-14T07:42:42;14.50;;;9.60;;
5752;SDS011;2901;42.140;24.760;2023-03-14T07:45:09;17.93;;;10.53;;
5752;SDS011;2901;42.140;24.760;2023-03-14T07:47:35;16.23;;;8.67;;
5752;SDS011;2901;42.140;24.760;2023-03-14T07:50:00;12.87;;;8.10;;
5752;SDS011;2901;42.140;24.760;2023-03-14T07:52:26;12.27;;;7.70;;
5752;SDS011;2901;42.140;24.760;2023-03-14T07:54:51;12.50;;;7.28;;
5752;SDS011;2901;42.140;24.760;2023-03-14T07:57:17;14.90;;;7.53;;
5752;SDS011;2901;42.140;24.760;2023-03-14T07:59:42;9.40;;;5.97;;
5752;SDS011;2901;42.140;24.760;2023-03-14T08:02:11;13.43;;;6.70;;
5752;SDS011;2901;42.140;24.760;2023-03-14T08:04:38;14.48;;;6.85;;
5752;SDS011;2901;42.140;24.760;2023-03-14T08:07:04;13.82;;;6.05;;
5752;SDS011;2901;42.140;24.760;2023-03-14T08:09:30;20.17;;;7.63;;
5752;SDS011;2901;42.140;24.760;2023-03-14T08:11:56;9.70;;;6.32;;
5752;SDS011;2901;42.140;24.760;2023-03-14T08:14:21;12.07;;;6.68;;
5752;SDS011;2901;42.140;24.760;2023-03-14T08:16:49;7.40;;;5.05;;
5752;SDS011;2901;42.140;24.760;2023-03-14T08:19:15;8.65;;;5.03;;
5752;SDS011;2901;42.140;24.760;2023-03-14T08:21:40;8.02;;;5.43;;
5752;SDS011;2901;42.140;24.760;2023-03-14T08:24:05;9.93;;;5.57;;
5752;SDS011;2901;42.140;24.760;2023-03-14T08:26:31;5.95;;;5.35;;
5752;SDS011;2901;42.140;24.760;2023-03-14T08:28:56;6.15;;;5.40;;
5752;SDS011;2901;42.140;24.760;2023-03-14T08:31:22;5.63;;;5.15;;
5752;SDS011;2901;42.140;24.760;2023-03-14T08:33:47;22.90;;;6.30;;
5752;SDS011;2901;42.140;24.760;2023-03-14T08:36:12;6.03;;;5.40;;
5752;SDS011;2901;42.140;24.760;2023-03-14T08:38:38;8.02;;;5.88;;
5752;SDS011;2901;42.140;24.760;2023-03-14T08:41:03;10.70;;;6.80;;
5752;SDS011;2901;42.140;24.760;2023-03-14T08:43:29;8.32;;;5.70;;
5752;SDS011;2901;42.140;24.760;2023-03-14T08:45:59;21.55;;;15.95;;
5752;SDS011;2901;42.140;24.760;2023-03-14T08:48:25;25.83;;;16.52;;
5752;SDS011;2901;42.140;24.760;2023-03-14T08:50:51;8.27;;;7.07;;
5752;SDS011;2901;42.140;24.760;2023-03-14T08:53:17;8.15;;;5.18;;
5752;SDS011;2901;42.140;24.760;2023-03-14T08:55:43;6.13;;;4.40;;
5752;SDS011;2901;42.140;24.760;2023-03-14T08:58:09;11.02;;;5.22;;
5752;SDS011;2901;42.140;24.760;2023-03-14T09:00:34;7.88;;;4.75;;
5752;SDS011;2901;42.140;24.760;2023-03-14T09:03:00;5.95;;;5.55;;
5752;SDS011;2901;42.140;24.760;2023-03-14T09:05:25;4.65;;;4.35;;
5752;SDS011;2901;42.140;24.760;2023-03-14T09:07:50;6.72;;;4.20;;
5752;SDS011;2901;42.140;24.760;2023-03-14T09:10:16;8.50;;;4.95;;
5752;SDS011;2901;42.140;24.760;2023-03-14T09:12:41;8.13;;;5.05;;
5752;SDS011;2901;42.140;24.760;2023-03-14T09:15:07;10.05;;;5.30;;
5752;SDS011;2901;42.140;24.760;2023-03-14T09:17:33;7.13;;;4.40;;
5752;SDS011;2901;42.140;24.760;2023-03-14T09:19:58;8.85;;;4.43;;
5752;SDS011;2901;42.140;24.760;2023-03-14T09:22:24;7.32;;;5.22;;
5752;SDS011;2901;42.140;24.760;2023-03-14T09:24:49;8.50;;;5.03;;
5752;SDS011;2901;42.140;24.760;2023-03-14T09:27:14;12.27;;;5.30;;
5752;SDS011;2901;42.140;24.760;2023-03-14T09:29:40;5.45;;;5.15;;
5752;SDS011;2901;42.140;24.760;2023-03-14T09:32:05;11.75;;;4.85;;
5752;SDS011;2901;42.140;24.760;2023-03-14T09:34:31;5.38;;;4.97;;
5752;SDS011;2901;42.140;24.760;2023-03-14T09:36:56;6.40;;;5.78;;
5752;SDS011;2901;42.140;24.760;2023-03-14T09:39:22;11.60;;;5.32;;
5752;SDS011;2901;42.140;24.760;2023-03-14T09:41:48;10.65;;;6.13;;
5752;SDS011;2901;42.140;24.760;2023-03-14T09:46:45;7.63;;;5.70;;
5752;SDS011;2901;42.140;24.760;2023-03-14T09:49:22;8.20;;;5.20;;
5752;SDS011;2901;42.140;24.760;2023-03-14T09:51:53;6.75;;;4.70;;
5752;SDS011;2901;42.140;24.760;2023-03-14T09:57:20;7.45;;;4.47;;
5752;SDS011;2901;42.140;24.760;2023-03-14T09:59:48;5.78;;;4.07;;
5752;SDS011;2901;42.140;24.760;2023-03-14T10:04:45;5.30;;;4.55;;
5752;SDS011;2901;42.140;24.760;2023-03-14T10:07:16;4.57;;;3.95;;
5752;SDS011;2901;42.140;24.760;2023-03-14T10:09:55;3.95;;;3.63;;
5752;SDS011;2901;42.140;24.760;2023-03-14T10:12:34;4.45;;;4.13;;
5752;SDS011;2901;42.140;24.760;2023-03-14T10:15:11;4.05;;;3.75;;
5752;SDS011;2901;42.140;24.760;2023-03-14T10:17:44;3.03;;;2.83;;
5752;SDS011;2901;42.140;24.760;2023-03-14T10:20:26;3.63;;;3.42;;
5752;SDS011;2901;42.140;24.760;2023-03-14T10:23:00;3.72;;;3.42;;
5752;SDS011;2901;42.140;24.760;2023-03-14T10:25:29;7.43;;;4.47;;
5752;SDS011;2901;42.140;24.760;2023-03-14T10:27:57;7.63;;;4.18;;
5752;SDS011;2901;42.140;24.760;2023-03-14T10:35:40;6.97;;;3.72;;
5752;SDS011;2901;42.140;24.760;2023-03-14T10:38:10;3.97;;;3.67;;
5752;SDS011;2901;42.140;24.760;2023-03-14T10:40:39;3.55;;;3.25;;
5752;SDS011;2901;42.140;24.760;2023-03-14T10:43:13;4.82;;;4.45;;
5752;SDS011;2901;42.140;24.760;2023-03-14T10:45:47;6.05;;;4.72;;
5752;SDS011;2901;42.140;24.760;2023-03-14T10:48:21;11.20;;;4.88;;
5752;SDS011;2901;42.140;24.760;2023-03-14T10:51:02;5.32;;;4.70;;
5752;SDS011;2901;42.140;24.760;2023-03-14T10:53:42;10.05;;;5.40;;
5752;SDS011;2901;42.140;24.760;2023-03-14T10:56:19;6.82;;;4.13;;
5752;SDS011;2901;42.140;24.760;2023-03-14T10:58:47;3.80;;;3.60;;
5752;SDS011;2901;42.140;24.760;2023-03-14T11:06:33;3.72;;;3.40;;
5752;SDS011;2901;42.140;24.760;2023-03-14T11:09:10;3.92;;;3.72;;
5752;SDS011;2901;42.140;24.760;2023-03-14T11:11:47;15.32;;;4.55;;
5752;SDS011;2901;42.140;24.760;2023-03-14T11:17:13;5.07;;;3.55;;
5752;SDS011;2901;42.140;24.760;2023-03-14T11:28:06;4.45;;;4.10;;
5752;SDS011;2901;42.140;24.760;2023-03-14T11:30:53;3.75;;;3.00;;
5752;SDS011;2901;42.140;24.760;2023-03-14T11:33:35;2.75;;;2.65;;
5752;SDS011;2901;42.140;24.760;2023-03-14T11:36:07;2.60;;;2.40;;
5752;SDS011;2901;42.140;24.760;2023-03-14T11:38:39;3.30;;;3.10;;
5752;SDS011;2901;42.140;24.760;2023-03-14T11:41:15;2.85;;;2.65;;
5752;SDS011;2901;42.140;24.760;2023-03-14T11:43:46;3.03;;;2.83;;
5752;SDS011;2901;42.140;24.760;2023-03-14T11:56:59;3.17;;;2.97;;
5752;SDS011;2901;42.140;24.760;2023-03-14T11:59:38;4.63;;;2.80;;
5752;SDS011;2901;42.140;24.760;2023-03-14T12:13:12;4.18;;;3.50;;
5752;SDS011;2901;42.140;24.760;2023-03-14T12:15:40;3.92;;;3.15;;
5752;SDS011;2901;42.140;24.760;2023-03-14T12:21:04;3.80;;;3.50;;
5752;SDS011;2901;42.140;24.760;2023-03-14T12:23:42;4.70;;;3.58;;
5752;SDS011;2901;42.140;24.760;2023-03-14T12:28:36;8.02;;;3.33;;
5752;SDS011;2901;42.140;24.760;2023-03-14T12:34:03;15.35;;;4.47;;
5752;SDS011;2901;42.140;24.760;2023-03-14T12:39:35;4.30;;;3.42;;
5752;SDS011;2901;42.140;24.760;2023-03-14T12:42:08;4.15;;;3.85;;
5752;SDS011;2901;42.140;24.760;2023-03-14T12:44:45;7.95;;;3.08;;
5752;SDS011;2901;42.140;24.760;2023-03-14T12:49:42;4.15;;;3.67;;
5752;SDS011;2901;42.140;24.760;2023-03-14T12:52:16;3.03;;;2.83;;
5752;SDS011;2901;42.140;24.760;2023-03-14T12:57:32;5.32;;;3.17;;
5752;SDS011;2901;42.140;24.760;2023-03-14T13:00:00;4.53;;;3.53;;
5752;SDS011;2901;42.140;24.760;2023-03-14T13:02:42;4.43;;;3.55;;
5752;SDS011;2901;42.140;24.760;2023-03-14T13:05:16;6.43;;;3.80;;
5752;SDS011;2901;42.140;24.760;2023-03-14T13:10:24;8.00;;;6.65;;
5752;SDS011;2901;42.140;24.760;2023-03-14T13:15:57;6.68;;;3.60;;
5752;SDS011;2901;42.140;24.760;2023-03-14T13:21:06;4.15;;;3.88;;
5752;SDS011;2901;42.140;24.760;2023-03-14T13:23:34;4.55;;;4.18;;
5752;SDS011;2901;42.140;24.760;2023-03-14T13:26:01;3.40;;;3.20;;
5752;SDS011;2901;42.140;24.760;2023-03-14T13:28:27;8.20;;;4.18;;
5752;SDS011;2901;42.140;24.760;2023-03-14T13:30:56;3.80;;;3.60;;
5752;SDS011;2901;42.140;24.760;2023-03-14T13:33:23;5.80;;;3.22;;
5752;SDS011;2901;42.140;24.760;2023-03-14T13:35:55;11.20;;;4.45;;
5752;SDS011;2901;42.140;24.760;2023-03-14T13:38:29;7.70;;;4.35;;
5752;SDS011;2901;42.140;24.760;2023-03-14T13:41:03;5.15;;;3.72;;
5752;SDS011;2901;42.140;24.760;2023-03-14T13:43:32;7.57;;;3.60;;
5752;SDS011;2901;42.140;24.760;2023-03-14T13:46:14;4.50;;;3.88;;
5752;SDS011;2901;42.140;24.760;2023-03-14T13:48:45;3.90;;;3.60;;
5752;SDS011;2901;42.140;24.760;2023-03-14T13:51:13;6.35;;;3.63;;
5752;SDS011;2901;42.140;24.760;2023-03-14T13:53:43;5.82;;;4.00;;
5752;SDS011;2901;42.140;24.760;2023-03-14T13:56:12;2.70;;;2.50;;
5752;SDS011;2901;42.140;24.760;2023-03-14T13:58:39;3.92;;;3.25;;
5752;SDS011;2901;42.140;24.760;2023-03-14T14:01:18;3.88;;;3.10;;
5752;SDS011;2901;42.140;24.760;2023-03-14T14:03:49;5.05;;;3.20;;
5752;SDS011;2901;42.140;24.760;2023-03-14T14:06:18;5.25;;;3.35;;
5752;SDS011;2901;42.140;24.760;2023-03-14T14:08:45;3.17;;;2.88;;
5752;SDS011;2901;42.140;24.760;2023-03-14T14:11:14;3.42;;;3.13;;
5752;SDS011;2901;42.140;24.760;2023-03-14T14:13:47;4.65;;;3.33;;
5752;SDS011;2901;42.140;24.760;2023-03-14T14:16:13;4.47;;;3.78;;
5752;SDS011;2901;42.140;24.760;2023-03-14T14:18:42;4.05;;;2.92;;
5752;SDS011;2901;42.140;24.760;2023-03-14T14:21:08;4.28;;;3.33;;
5752;SDS011;2901;42.140;24.760;2023-03-14T14:23:35;5.40;;;3.38;;
5752;SDS011;2901;42.140;24.760;2023-03-14T14:26:01;3.47;;;3.25;;
5752;SDS011;2901;42.140;24.760;2023-03-14T14:28:31;8.23;;;3.10;;
5752;SDS011;2901;42.140;24.760;2023-03-14T14:31:03;4.13;;;3.83;;
5752;SDS011;2901;42.140;24.760;2023-03-14T14:33:28;4.63;;;2.75;;
5752;SDS011;2901;42.140;24.760;2023-03-14T14:35:55;5.65;;;2.97;;
5752;SDS011;2901;42.140;24.760;2023-03-14T14:38:23;3.22;;;2.97;;
5752;SDS011;2901;42.140;24.760;2023-03-14T14:40:49;4.95;;;3.22;;
5752;SDS011;2901;42.140;24.760;2023-03-14T14:43:19;6.93;;;3.30;;
5752;SDS011;2901;42.140;24.760;2023-03-14T14:45:48;4.20;;;2.95;;
5752;SDS011;2901;42.140;24.760;2023-03-14T14:48:18;8.02;;;3.58;;
5752;SDS011;2901;42.140;24.760;2023-03-14T14:53:19;5.10;;;2.80;;
5752;SDS011;2901;42.140;24.760;2023-03-14T14:55:52;6.95;;;3.60;;
5752;SDS011;2901;42.140;24.760;2023-03-14T15:03:33;4.85;;;3.72;;
5752;SDS011;2901;42.140;24.760;2023-03-14T15:06:00;4.43;;;4.03;;
5752;SDS011;2901;42.140;24.760;2023-03-14T15:08:27;4.55;;;3.90;;
5752;SDS011;2901;42.140;24.760;2023-03-14T15:10:53;5.85;;;4.43;;
5752;SDS011;2901;42.140;24.760;2023-03-14T15:13:19;28.42;;;10.02;;
5752;SDS011;2901;42.140;24.760;2023-03-14T15:15:44;28.88;;;10.05;;
5752;SDS011;2901;42.140;24.760;2023-03-14T15:18:15;5.00;;;4.60;;
5752;SDS011;2901;42.140;24.760;2023-03-14T15:20:43;15.85;;;7.22;;
5752;SDS011;2901;42.140;24.760;2023-03-14T15:23:09;17.27;;;10.85;;
5752;SDS011;2901;42.140;24.760;2023-03-14T15:25:39;4.07;;;3.78;;
5752;SDS011;2901;42.140;24.760;2023-03-14T15:28:11;9.55;;;6.78;;
5752;SDS011;2901;42.140;24.760;2023-03-14T15:30:44;3.50;;;3.25;;
5752;SDS011;2901;42.140;24.760;2023-03-14T15:33:10;6.82;;;3.65;;
5752;SDS011;2901;42.140;24.760;2023-03-14T15:35:36;10.90;;;4.30;;
5752;SDS011;2901;42.140;24.760;2023-03-14T15:38:02;7.47;;;3.92;;
5752;SDS011;2901;42.140;24.760;2023-03-14T15:40:28;6.25;;;3.30;;
5752;SDS011;2901;42.140;24.760;2023-03-14T15:42:54;4.35;;;3.95;;
5752;SDS011;2901;42.140;24.760;2023-03-14T15:45:19;4.45;;;3.20;;
5752;SDS011;2901;42.140;24.760;2023-03-14T15:47:45;3.58;;;3.28;;
5752;SDS011;2901;42.140;24.760;2023-03-14T15:50:10;7.32;;;3.42;;
5752;SDS011;2901;42.140;24.760;2023-03-14T15:52:36;5.78;;;3.38;;
5752;SDS011;2901;42.140;24.760;2023-03-14T15:55:01;4.00;;;2.60;;
5752;SDS011;2901;42.140;24.760;2023-03-14T15:57:27;3.65;;;3.35;;
5752;SDS011;2901;42.140;24.760;2023-03-14T15:59:53;3.05;;;2.85;;
5752;SDS011;2901;42.140;24.760;2023-03-14T16:02:18;5.55;;;2.53;;
5752;SDS011;2901;42.140;24.760;2023-03-14T16:04:44;2.25;;;2.15;;
5752;SDS011;2901;42.140;24.760;2023-03-14T16:07:09;2.53;;;2.33;;
5752;SDS011;2901;42.140;24.760;2023-03-14T16:09:35;2.35;;;2.15;;
5752;SDS011;2901;42.140;24.760;2023-03-14T16:12:00;3.45;;;2.33;;
5752;SDS011;2901;42.140;24.760;2023-03-14T16:14:25;3.47;;;2.30;;
5752;SDS011;2901;42.140;24.760;2023-03-14T16:16:52;6.00;;;2.55;;
5752;SDS011;2901;42.140;24.760;2023-03-14T16:19:18;2.72;;;2.50;;
5752;SDS011;2901;42.140;24.760;2023-03-14T16:21:43;3.67;;;3.00;;
5752;SDS011;2901;42.140;24.760;2023-03-14T16:24:09;3.38;;;3.05;;
5752;SDS011;2901;42.140;24.760;2023-03-14T16:26:34;3.70;;;3.28;;